map of YQL home
YQL - Airport
Location
City:  Lethbridge, Alberta, Canada
Name:Lethbridge County Airport
ICAO:CYQL
IATA:YQL

Details
Type:Airport (Airfield)
Use:Public/Civil
Latitude:4937'49"N (49.630278)
Longitude:11247'59"W (-112.799721)
Elevation:3049 ft (929 m)
Variation:13.22E (WMM2015v2 magnetic declination)
-0.10 annual change
Runways:2
Longest:6500 ft (1981 m), paved

Time
Time Zone:UTC-7 (DST-6)
Local Time:

Weather
METAR:CYQL 041400Z 11004KT 10SM -SN BKN050 M25/M30 A3005 RMK SC7 SLP285
TAF:CYQL 041138Z 0412/0424 05005KT P6SM -SN SCT040 OVC090
TEMPO 0412/0424 5SM -SN FEW020 OVC040
RMK FCST BASED ON AUTO OBS. NXT FCST BY 041800Z

Related Locations
Nearby:
Farthest:YWKS: 10495 mi / 16890 km
Wilkins Runway (Casey), Upper Peterson Glacier, AQ

Find:

   beyond  
but within

Other Information
Maps:
NOTAMs:
Links:
Sources:

  
  • flag of Canada
  • flag of Alberta
  • flag of Lethbridge
  

Airport Diagram

Airport diagram for YQL

Airport diagram PDF

Sectional Chart

Flight Planning
at skyvector.com

Satellite Image

Google Maps Satellite view

 

Copyright © 2004-2019 Karl L. Swartz. All rights reserved.
The Great Circle Mapper name and logo are trademarks of the Great Circle Mapper.
All other trademarks mentioned herein belong to their respective owners.
Please see credits for attibutions and further copyright information.

  Follow gcmap on Facebook Follow gcmap on Twitter GCmap on LinkedIn

hCard Microformat

Geo Microformat